createdAt,value
2022-08-19T00:01:37.811Z,21.40
2022-08-19T00:04:08.087Z,21.50
2022-08-19T00:06:36.529Z,21.50
2022-08-19T00:09:05.649Z,21.50
2022-08-19T00:11:32.816Z,21.40
2022-08-19T00:13:59.923Z,21.40
2022-08-19T00:16:28.079Z,21.40
2022-08-19T00:18:56.528Z,21.40
2022-08-19T00:21:27.681Z,21.40
2022-08-19T00:24:02.128Z,21.40
2022-08-19T00:26:29.453Z,21.30
2022-08-19T00:28:56.427Z,21.30
2022-08-19T00:31:23.512Z,21.20
2022-08-19T00:33:51.507Z,21.30
2022-08-19T00:36:18.775Z,21.40
2022-08-19T00:38:45.823Z,21.70
2022-08-19T00:41:22.212Z,21.90
2022-08-19T00:44:02.525Z,22.00
2022-08-19T00:46:30.289Z,22.00
2022-08-19T00:48:58.719Z,21.80
2022-08-19T00:51:28.406Z,21.60
2022-08-19T00:53:57.861Z,21.60
2022-08-19T00:56:25.130Z,21.50
2022-08-19T00:58:52.083Z,21.40
2022-08-19T01:01:19.068Z,21.40
2022-08-19T01:03:57.660Z,21.40
2022-08-19T01:06:27.256Z,21.50
2022-08-19T01:08:55.956Z,21.80
2022-08-19T01:11:22.991Z,21.80
2022-08-19T01:13:50.766Z,21.60
2022-08-19T01:16:20.303Z,21.40
2022-08-19T01:18:47.634Z,21.40
2022-08-19T01:21:30.007Z,21.30
2022-08-19T01:23:57.063Z,21.20
2022-08-19T01:26:25.951Z,21.10
2022-08-19T01:28:59.471Z,21.20
2022-08-19T01:31:32.809Z,21.20
2022-08-19T01:34:01.126Z,21.30
2022-08-19T01:36:33.785Z,21.30
2022-08-19T01:39:03.798Z,21.30
2022-08-19T01:41:30.720Z,21.30
2022-08-19T01:44:03.238Z,21.20
2022-08-19T01:46:45.411Z,21.20
2022-08-19T01:49:12.548Z,21.10
2022-08-19T01:51:40.561Z,21.10
2022-08-19T01:54:09.668Z,21.10
2022-08-19T01:56:37.048Z,21.10
2022-08-19T01:59:11.326Z,21.10
2022-08-19T02:01:38.296Z,21.00
2022-08-19T02:04:06.737Z,21.00
2022-08-19T02:06:34.185Z,20.90
2022-08-19T02:09:01.909Z,20.90
2022-08-19T02:11:32.687Z,20.90
2022-08-19T02:14:01.093Z,20.80
2022-08-19T02:16:28.062Z,20.80
2022-08-19T02:18:55.668Z,20.70
2022-08-19T02:21:24.446Z,20.60
2022-08-19T02:23:51.888Z,20.60
2022-08-19T02:26:20.205Z,20.60
2022-08-19T02:28:47.213Z,20.60
2022-08-19T02:31:18.091Z,20.50
2022-08-19T02:33:45.843Z,20.50
2022-08-19T02:36:14.357Z,20.40
2022-08-19T02:38:47.170Z,20.40
2022-08-19T02:41:26.778Z,20.50
2022-08-19T02:44:22.333Z,20.80
2022-08-19T02:46:42.177Z,20.90
2022-08-19T02:49:09.350Z,20.90
2022-08-19T02:51:39.982Z,20.90
2022-08-19T02:54:08.869Z,20.80
2022-08-19T02:56:37.694Z,20.60
2022-08-19T02:59:09.233Z,20.50
2022-08-19T03:01:40.712Z,20.60
2022-08-19T03:04:09.079Z,20.60
2022-08-19T03:06:41.759Z,20.50
2022-08-19T03:09:09.114Z,20.40
2022-08-19T03:11:36.325Z,20.40
2022-08-19T03:14:05.381Z,20.70
2022-08-19T03:16:49.290Z,20.70
2022-08-19T03:19:18.652Z,20.50
2022-08-19T03:21:45.781Z,20.40
2022-08-19T03:24:14.043Z,20.40
2022-08-19T03:26:44.007Z,20.40
2022-08-19T03:29:13.221Z,20.30
2022-08-19T03:31:51.202Z,20.40
2022-08-19T03:34:29.902Z,20.60
2022-08-19T03:36:58.955Z,20.70
2022-08-19T03:39:27.272Z,20.50
2022-08-19T03:42:33.111Z,20.30
2022-08-19T03:44:46.000Z,20.20
2022-08-19T03:47:17.140Z,20.10
2022-08-19T03:49:44.197Z,20.10
2022-08-19T03:52:11.254Z,20.10
2022-08-19T03:54:39.250Z,20.20
2022-08-19T03:57:07.098Z,20.10
2022-08-19T03:59:36.298Z,20.10
2022-08-19T04:02:09.415Z,20.00
2022-08-19T04:04:38.465Z,20.00
2022-08-19T04:07:05.586Z,20.00
2022-08-19T04:09:34.164Z,20.00
2022-08-19T04:12:01.103Z,19.90
2022-08-19T04:14:33.158Z,19.90
2022-08-19T04:17:01.577Z,19.90
2022-08-19T04:19:31.336Z,19.90
2022-08-19T04:21:59.404Z,19.90
2022-08-19T04:24:26.705Z,20.00
2022-08-19T04:26:54.102Z,20.00
2022-08-19T04:29:27.833Z,20.00
2022-08-19T04:31:56.629Z,20.00
2022-08-19T04:34:25.813Z,20.20
2022-08-19T04:36:55.108Z,20.20
2022-08-19T04:39:51.289Z,20.30
2022-08-19T04:42:37.696Z,20.30
2022-08-19T04:45:15.174Z,20.40
2022-08-19T04:47:48.218Z,20.50
2022-08-19T04:50:27.230Z,20.60
2022-08-19T04:52:56.477Z,20.70
2022-08-19T04:55:26.422Z,20.70
2022-08-19T04:57:54.268Z,20.80
2022-08-19T05:00:21.235Z,21.00
2022-08-19T05:02:50.174Z,21.20
2022-08-19T05:05:17.304Z,21.20
2022-08-19T05:07:44.269Z,21.70
2022-08-19T05:10:11.516Z,21.90
2022-08-19T05:12:38.979Z,21.80
2022-08-19T05:15:08.039Z,21.70
2022-08-19T05:17:38.621Z,21.50
2022-08-19T05:20:26.653Z,21.60
2022-08-19T05:22:54.032Z,21.50
2022-08-19T05:25:22.790Z,21.50
2022-08-19T05:27:49.808Z,21.60
2022-08-19T05:30:17.885Z,21.70
2022-08-19T05:32:45.570Z,21.90
2022-08-19T05:35:13.123Z,22.00
2022-08-19T05:37:41.360Z,21.90
2022-08-19T05:40:09.893Z,21.90
2022-08-19T05:42:36.909Z,21.80
2022-08-19T05:45:05.372Z,21.90
2022-08-19T05:47:32.987Z,21.80
2022-08-19T05:50:00.044Z,21.60
2022-08-19T05:52:28.102Z,21.70
2022-08-19T05:54:56.588Z,21.60
2022-08-19T05:57:25.353Z,21.60
2022-08-19T05:59:58.182Z,21.80
2022-08-19T06:02:27.364Z,21.80
2022-08-19T06:04:54.450Z,21.90
2022-08-19T06:07:21.493Z,21.90
2022-08-19T06:09:59.079Z,21.90
2022-08-19T06:12:32.571Z,21.80
2022-08-19T06:15:02.089Z,21.70
2022-08-19T06:17:32.800Z,21.70
2022-08-19T06:20:00.415Z,21.70
2022-08-19T06:22:28.824Z,21.60
2022-08-19T06:24:56.437Z,21.60
2022-08-19T06:27:24.206Z,21.60
2022-08-19T06:29:51.283Z,21.70
2022-08-19T06:32:19.913Z,21.50
2022-08-19T06:34:47.505Z,21.30
2022-08-19T06:37:14.552Z,21.10
2022-08-19T06:39:44.944Z,21.10
2022-08-19T06:42:14.215Z,21.00
2022-08-19T06:44:48.276Z,21.00
2022-08-19T06:47:23.618Z,21.20
2022-08-19T06:50:02.954Z,21.20
2022-08-19T06:52:38.446Z,21.10
2022-08-19T06:55:06.942Z,21.20
2022-08-19T06:57:34.974Z,21.30
2022-08-19T07:00:02.415Z,21.10
2022-08-19T07:02:29.615Z,21.00
2022-08-19T07:04:59.168Z,21.00
2022-08-19T07:07:26.257Z,21.00
2022-08-19T07:09:59.018Z,20.90
2022-08-19T07:12:35.418Z,20.90
2022-08-19T07:15:05.389Z,20.90
2022-08-19T07:17:34.537Z,21.10
2022-08-19T07:20:05.547Z,21.10
2022-08-19T07:22:37.139Z,21.10
2022-08-19T07:25:05.079Z,21.00
2022-08-19T07:27:33.515Z,20.90
2022-08-19T07:30:01.032Z,20.90
2022-08-19T07:32:28.233Z,20.80
2022-08-19T07:34:57.044Z,20.70
2022-08-19T07:37:33.053Z,20.60
2022-08-19T07:40:02.156Z,20.50
2022-08-19T07:42:30.915Z,20.50
2022-08-19T07:44:59.402Z,20.60
2022-08-19T07:47:48.779Z,20.70
2022-08-19T07:50:14.322Z,20.60
2022-08-19T07:52:41.644Z,20.70
2022-08-19T07:55:41.708Z,20.60
2022-08-19T07:57:58.135Z,20.70
2022-08-19T08:00:25.328Z,20.90
2022-08-19T08:02:55.395Z,21.00
2022-08-19T08:05:53.034Z,21.20
2022-08-19T08:08:44.080Z,21.20
2022-08-19T08:11:16.060Z,21.00
2022-08-19T08:13:44.770Z,20.80
2022-08-19T08:16:14.442Z,20.90
2022-08-19T08:18:43.325Z,20.90
2022-08-19T08:21:17.330Z,20.60
2022-08-19T08:23:44.315Z,20.40
2022-08-19T08:26:11.944Z,20.50
2022-08-19T08:28:39.896Z,20.60
2022-08-19T08:31:09.636Z,20.60
2022-08-19T08:33:36.777Z,20.70
2022-08-19T08:36:07.345Z,20.70
2022-08-19T08:38:39.810Z,20.60
2022-08-19T08:41:28.834Z,20.50
2022-08-19T08:43:58.210Z,20.50
2022-08-19T08:46:46.826Z,20.60
2022-08-19T08:49:21.456Z,20.60
2022-08-19T08:52:00.033Z,20.60
2022-08-19T08:54:55.328Z,20.50
2022-08-19T08:57:54.588Z,20.50
2022-08-19T09:00:35.601Z,20.50
2022-08-19T09:03:04.508Z,20.50
2022-08-19T09:05:53.446Z,20.50
2022-08-19T09:08:44.322Z,20.60
2022-08-19T09:11:43.067Z,20.70
2022-08-19T09:14:52.868Z,20.60
2022-08-19T09:17:32.016Z,20.80
2022-08-19T09:20:09.099Z,20.80
2022-08-19T09:22:38.118Z,20.70
2022-08-19T09:25:08.159Z,20.70
2022-08-19T09:27:43.157Z,20.70
2022-08-19T09:30:24.835Z,20.80
2022-08-19T09:32:53.876Z,20.70
2022-08-19T09:35:23.746Z,20.70
2022-08-19T09:37:57.372Z,20.80
2022-08-19T09:40:26.679Z,20.80
2022-08-19T09:42:54.050Z,20.90
2022-08-19T09:45:23.050Z,21.00
2022-08-19T09:47:53.935Z,21.00
2022-08-19T09:50:23.965Z,21.00
2022-08-19T09:52:55.417Z,21.00
2022-08-19T09:55:32.070Z,21.20
2022-08-19T09:58:02.150Z,21.30
2022-08-19T10:00:29.712Z,21.30
2022-08-19T10:02:56.747Z,21.40
2022-08-19T10:05:42.683Z,21.40
2022-08-19T10:08:13.324Z,21.50
2022-08-19T10:10:47.219Z,21.50
2022-08-19T10:13:17.285Z,21.50
2022-08-19T10:15:47.308Z,21.60
2022-08-19T10:18:15.686Z,21.80
2022-08-19T10:20:43.325Z,21.90
2022-08-19T10:23:10.603Z,22.20
2022-08-19T10:25:38.585Z,22.10
2022-08-19T10:28:10.805Z,22.00
2022-08-19T10:30:38.527Z,22.20
2022-08-19T10:33:10.927Z,22.40
2022-08-19T10:35:42.717Z,22.50
2022-08-19T10:38:31.438Z,22.50
2022-08-19T10:41:07.633Z,22.60
2022-08-19T10:43:37.879Z,22.50
2022-08-19T10:46:06.605Z,22.50
2022-08-19T10:48:42.995Z,22.70
2022-08-19T10:51:29.776Z,22.90
2022-08-19T10:53:57.657Z,23.20
2022-08-19T10:56:43.209Z,23.50
2022-08-19T10:59:10.742Z,23.70
2022-08-19T11:01:37.720Z,24.00
2022-08-19T11:04:05.841Z,24.30
2022-08-19T11:06:33.492Z,24.40
2022-08-19T11:09:01.003Z,24.90
2022-08-19T11:11:29.427Z,25.70
2022-08-19T11:13:57.508Z,26.10
2022-08-19T11:16:30.589Z,26.20
2022-08-19T11:18:59.620Z,26.20
2022-08-19T11:21:32.916Z,26.00
2022-08-19T11:24:03.272Z,26.50
2022-08-19T11:26:31.732Z,26.60
2022-08-19T11:29:00.140Z,26.50
2022-08-19T11:31:31.721Z,25.90
2022-08-19T11:34:00.827Z,25.60
2022-08-19T11:36:28.485Z,25.90
2022-08-19T11:38:56.017Z,25.90
2022-08-19T11:41:25.141Z,26.00
2022-08-19T11:43:55.123Z,26.20
2022-08-19T11:46:23.732Z,26.10
2022-08-19T11:48:51.583Z,26.00
2022-08-19T11:51:22.469Z,26.00
2022-08-19T11:53:51.309Z,26.10
2022-08-19T11:56:19.969Z,26.10
2022-08-19T11:58:47.387Z,25.90
2022-08-19T12:01:17.375Z,26.10
2022-08-19T12:03:46.721Z,25.70
2022-08-19T12:06:29.390Z,25.70
2022-08-19T12:08:58.060Z,25.80
2022-08-19T12:11:25.088Z,25.80
2022-08-19T12:13:52.531Z,26.10
2022-08-19T12:16:22.279Z,26.10
2022-08-19T12:18:49.531Z,26.40
2022-08-19T12:21:22.095Z,26.60
2022-08-19T12:23:55.518Z,26.40
2022-08-19T12:26:23.587Z,26.30
2022-08-19T12:28:51.092Z,26.30
2022-08-19T12:31:18.933Z,26.50
2022-08-19T12:33:45.852Z,26.70
2022-08-19T12:36:15.161Z,26.50
2022-08-19T12:38:42.593Z,26.60
2022-08-19T12:41:13.468Z,26.30
2022-08-19T12:43:40.587Z,26.20
2022-08-19T12:46:07.733Z,26.40
2022-08-19T12:48:38.434Z,26.30
2022-08-19T12:51:10.301Z,26.20
2022-08-19T12:53:39.234Z,26.00
2022-08-19T12:56:08.968Z,25.90
2022-08-19T12:58:39.989Z,25.90
2022-08-19T13:01:15.508Z,25.90
2022-08-19T13:03:46.975Z,26.10
2022-08-19T13:06:14.753Z,25.90
2022-08-19T13:08:46.535Z,26.00
2022-08-19T13:11:15.917Z,25.70
2022-08-19T13:13:44.832Z,25.70
2022-08-19T13:16:12.841Z,25.70
2022-08-19T13:18:41.197Z,25.70
2022-08-19T13:21:13.518Z,25.90
2022-08-19T13:23:42.005Z,26.10
2022-08-19T13:26:11.157Z,26.30
2022-08-19T13:28:57.304Z,26.90
2022-08-19T13:31:44.372Z,26.90
2022-08-19T13:34:11.708Z,27.00
2022-08-19T13:36:39.588Z,27.40
2022-08-19T13:39:08.594Z,27.60
2022-08-19T13:41:37.112Z,27.60
2022-08-19T13:44:05.398Z,27.70
2022-08-19T13:46:32.467Z,27.70
2022-08-19T13:48:59.432Z,27.50
2022-08-19T13:51:26.343Z,27.40
2022-08-19T13:53:53.210Z,27.20
2022-08-19T13:56:25.411Z,27.20
2022-08-19T13:58:54.374Z,27.20
2022-08-19T14:01:25.288Z,27.10
2022-08-19T14:03:52.427Z,27.00
2022-08-19T14:06:19.891Z,26.90
2022-08-19T14:08:47.565Z,26.90
2022-08-19T14:11:15.027Z,27.00
2022-08-19T14:13:42.289Z,26.90
2022-08-19T14:16:14.561Z,26.90
2022-08-19T14:18:42.464Z,26.60
2022-08-19T14:21:16.383Z,26.50
2022-08-19T14:23:43.319Z,26.50
2022-08-19T14:26:14.586Z,26.70
2022-08-19T14:28:42.950Z,26.50
2022-08-19T14:31:12.344Z,26.40
2022-08-19T14:33:39.504Z,26.30
2022-08-19T14:36:06.575Z,26.20
2022-08-19T14:38:33.794Z,26.30
2022-08-19T14:41:14.774Z,26.50
2022-08-19T14:43:42.550Z,26.80
2022-08-19T14:46:11.291Z,27.10
2022-08-19T14:48:41.510Z,27.40
2022-08-19T14:51:09.452Z,27.40
2022-08-19T14:53:37.049Z,27.30
2022-08-19T14:56:14.188Z,27.20
2022-08-19T14:58:43.084Z,27.00
2022-08-19T15:01:11.266Z,27.00
2022-08-19T15:03:38.988Z,26.90
2022-08-19T15:06:06.879Z,26.90
2022-08-19T15:08:37.647Z,26.90
2022-08-19T15:11:10.695Z,27.00
2022-08-19T15:13:37.920Z,27.00
2022-08-19T15:16:05.328Z,27.00
2022-08-19T15:18:33.548Z,26.90
2022-08-19T15:21:00.463Z,26.70
2022-08-19T15:23:27.388Z,26.50
2022-08-19T15:25:55.730Z,26.40
2022-08-19T15:28:25.328Z,26.30
2022-08-19T15:30:52.986Z,26.20
2022-08-19T15:33:21.225Z,26.10
2022-08-19T15:35:50.902Z,26.00
2022-08-19T15:38:22.127Z,25.90
2022-08-19T15:40:50.423Z,25.80
2022-08-19T15:43:18.934Z,25.90
2022-08-19T15:45:49.307Z,25.80
2022-08-19T15:48:16.614Z,25.70
2022-08-19T15:50:43.642Z,25.70
2022-08-19T15:53:11.770Z,25.60
2022-08-19T15:55:44.049Z,25.70
2022-08-19T15:58:33.115Z,25.70
2022-08-19T16:01:26.986Z,25.90
2022-08-19T16:04:15.617Z,25.80
2022-08-19T16:06:47.091Z,25.80
2022-08-19T16:09:15.649Z,25.90
2022-08-19T16:11:45.806Z,25.90
2022-08-19T16:14:15.649Z,25.80
2022-08-19T16:16:46.652Z,25.90
2022-08-19T16:19:16.879Z,25.90
2022-08-19T16:21:49.697Z,25.80
2022-08-19T16:24:23.518Z,25.70
2022-08-19T16:26:50.712Z,25.80
2022-08-19T16:29:34.074Z,25.80
2022-08-19T16:32:09.949Z,25.90
2022-08-19T16:34:38.280Z,25.90
2022-08-19T16:37:05.365Z,25.70
2022-08-19T16:39:32.453Z,25.70
2022-08-19T16:41:59.935Z,25.60
2022-08-19T16:44:29.516Z,25.60
2022-08-19T16:47:00.384Z,25.60
2022-08-19T16:49:54.165Z,25.70
2022-08-19T16:52:17.505Z,25.80
2022-08-19T16:54:44.786Z,25.80
2022-08-19T16:57:12.574Z,25.70
2022-08-19T16:59:48.986Z,25.70
2022-08-19T17:02:22.467Z,25.80
2022-08-19T17:04:57.234Z,25.70
2022-08-19T17:07:27.718Z,25.80
2022-08-19T17:09:55.332Z,25.70
2022-08-19T17:12:30.734Z,25.60
2022-08-19T17:15:00.933Z,25.40
2022-08-19T17:17:29.274Z,25.20
2022-08-19T17:19:58.634Z,25.20
2022-08-19T17:22:25.722Z,25.10
2022-08-19T17:24:52.833Z,25.10
2022-08-19T17:27:23.676Z,25.00
2022-08-19T17:29:50.658Z,24.90
2022-08-19T17:32:17.604Z,24.80
2022-08-19T17:34:51.761Z,24.80
2022-08-19T17:37:19.180Z,24.60
2022-08-19T17:39:46.225Z,24.50
2022-08-19T17:42:13.281Z,24.50
2022-08-19T17:44:40.895Z,24.50
2022-08-19T17:47:07.813Z,24.40
2022-08-19T17:49:34.793Z,24.30
2022-08-19T17:52:01.774Z,24.20
2022-08-19T17:54:33.218Z,24.20
2022-08-19T17:57:01.403Z,24.10
2022-08-19T17:59:30.238Z,24.00
2022-08-19T18:01:57.991Z,23.90
2022-08-19T18:04:26.097Z,23.80
2022-08-19T18:06:55.416Z,23.70
2022-08-19T18:09:41.890Z,23.70
2022-08-19T18:12:14.026Z,23.70
2022-08-19T18:14:42.157Z,23.60
2022-08-19T18:17:12.454Z,23.50
2022-08-19T18:19:43.072Z,23.40
2022-08-19T18:22:22.545Z,23.30
2022-08-19T18:24:49.756Z,23.30
2022-08-19T18:27:16.919Z,23.20
2022-08-19T18:29:44.784Z,23.00
2022-08-19T18:32:12.898Z,22.90
2022-08-19T18:34:44.354Z,22.70
2022-08-19T18:37:11.820Z,22.80
2022-08-19T18:39:57.762Z,22.80
2022-08-19T18:42:43.660Z,22.70
2022-08-19T18:45:30.152Z,22.50
2022-08-19T18:48:26.987Z,22.50
2022-08-19T18:50:59.714Z,22.40
2022-08-19T18:53:29.365Z,22.40
2022-08-19T18:55:56.654Z,22.50
2022-08-19T18:58:26.560Z,22.40
2022-08-19T19:00:56.871Z,22.30
2022-08-19T19:03:25.472Z,22.20
2022-08-19T19:05:52.884Z,22.20
2022-08-19T19:08:20.536Z,22.20
2022-08-19T19:10:53.920Z,22.10
2022-08-19T19:13:20.834Z,22.10
2022-08-19T19:15:47.758Z,22.20
2022-08-19T19:18:14.610Z,22.00
2022-08-19T19:20:41.620Z,22.00
2022-08-19T19:23:08.909Z,22.00
2022-08-19T19:25:50.589Z,21.90
2022-08-19T19:28:23.930Z,22.00
2022-08-19T19:30:53.158Z,22.00
2022-08-19T19:33:20.355Z,22.00
2022-08-19T19:35:47.388Z,21.90
2022-08-19T19:38:14.596Z,21.80
2022-08-19T19:40:41.731Z,21.80
2022-08-19T19:43:08.760Z,21.80
2022-08-19T19:45:36.969Z,21.90
2022-08-19T19:48:05.405Z,22.00
2022-08-19T19:50:32.477Z,21.90
2022-08-19T19:52:59.465Z,21.80
2022-08-19T19:55:28.230Z,21.70
2022-08-19T19:57:55.328Z,21.60
2022-08-19T20:00:22.612Z,21.60
2022-08-19T20:02:50.859Z,21.70
2022-08-19T20:05:20.865Z,21.60
2022-08-19T20:08:07.230Z,21.60
2022-08-19T20:10:34.549Z,21.60
2022-08-19T20:13:02.805Z,21.60
2022-08-19T20:15:31.533Z,21.50
2022-08-19T20:18:00.131Z,21.70
2022-08-19T20:20:27.317Z,21.60
2022-08-19T20:22:54.376Z,21.60
2022-08-19T20:25:23.643Z,21.50
2022-08-19T20:27:50.773Z,21.50
2022-08-19T20:30:20.196Z,21.60
2022-08-19T20:32:48.295Z,21.50
2022-08-19T20:35:17.292Z,21.50
2022-08-19T20:37:44.409Z,21.50
2022-08-19T20:40:13.426Z,21.40
2022-08-19T20:42:42.976Z,21.40
2022-08-19T20:45:25.373Z,21.30
2022-08-19T20:47:59.524Z,21.20
2022-08-19T20:50:26.494Z,21.20
2022-08-19T20:52:57.670Z,21.30
2022-08-19T20:55:26.413Z,21.30
2022-08-19T20:57:53.884Z,21.30
2022-08-19T21:00:20.957Z,21.30
2022-08-19T21:02:47.968Z,21.40
2022-08-19T21:05:15.293Z,21.30
2022-08-19T21:07:42.320Z,21.30
2022-08-19T21:10:09.378Z,21.40
2022-08-19T21:12:36.539Z,21.30
2022-08-19T21:15:04.200Z,21.20
2022-08-19T21:17:31.483Z,21.20
2022-08-19T21:19:58.422Z,21.10
2022-08-19T21:22:25.415Z,21.10
2022-08-19T21:24:52.310Z,21.20
2022-08-19T21:27:19.274Z,21.20
2022-08-19T21:29:46.138Z,21.20
2022-08-19T21:32:14.545Z,21.20
2022-08-19T21:34:43.710Z,21.10
2022-08-19T21:37:25.186Z,21.10
2022-08-19T21:39:53.732Z,21.00
2022-08-19T21:42:21.544Z,21.20
2022-08-19T21:44:48.941Z,21.20
2022-08-19T21:47:15.907Z,21.20
2022-08-19T21:49:43.034Z,21.10
2022-08-19T21:52:09.950Z,21.00
2022-08-19T21:54:37.710Z,21.00
2022-08-19T21:57:10.225Z,21.00
2022-08-19T21:59:41.117Z,20.80
2022-08-19T22:02:20.131Z,20.70
2022-08-19T22:04:48.091Z,20.60
2022-08-19T22:07:15.084Z,20.60
2022-08-19T22:09:46.637Z,20.60
2022-08-19T22:12:34.407Z,20.70
2022-08-19T22:15:01.995Z,20.50
2022-08-19T22:17:29.925Z,20.60
2022-08-19T22:19:57.459Z,20.60
2022-08-19T22:22:30.698Z,20.50
2022-08-19T22:25:29.101Z,20.50
2022-08-19T22:28:01.752Z,20.40
2022-08-19T22:30:33.157Z,20.40
2022-08-19T22:33:04.124Z,20.30
2022-08-19T22:35:32.929Z,20.30
2022-08-19T22:38:00.766Z,20.30
2022-08-19T22:40:29.671Z,20.40
2022-08-19T22:43:06.118Z,20.30
2022-08-19T22:45:33.695Z,20.10
2022-08-19T22:48:00.648Z,20.00
2022-08-19T22:50:27.673Z,20.00
2022-08-19T22:52:58.730Z,20.00
2022-08-19T22:55:26.670Z,20.10
2022-08-19T22:57:54.072Z,20.10
2022-08-19T23:00:22.839Z,20.10
2022-08-19T23:02:52.062Z,20.00
2022-08-19T23:05:22.165Z,20.00
2022-08-19T23:07:52.331Z,20.20
2022-08-19T23:10:26.701Z,20.10
2022-08-19T23:12:57.747Z,20.00
2022-08-19T23:15:27.865Z,20.00
2022-08-19T23:17:58.044Z,20.10
2022-08-19T23:20:27.452Z,19.90
2022-08-19T23:22:55.556Z,20.00
2022-08-19T23:25:28.634Z,20.00
2022-08-19T23:28:14.594Z,20.10
2022-08-19T23:30:44.589Z,20.20
2022-08-19T23:33:24.946Z,20.00
2022-08-19T23:35:57.881Z,20.00
2022-08-19T23:38:25.987Z,20.00
2022-08-19T23:40:58.306Z,20.00
2022-08-19T23:43:29.670Z,19.90
2022-08-19T23:46:01.761Z,19.90
2022-08-19T23:48:36.240Z,20.00
2022-08-19T23:51:05.680Z,20.10
2022-08-19T23:53:33.032Z,20.10
2022-08-19T23:56:00.193Z,20.10
2022-08-19T23:58:30.059Z,20.10
